Atlantic - Newfoundland: Past 24 Hour Conditions

 

Daniel's Harbour

05:30 PM NDT 17 April 2014
This table is a summary of hourly weather conditions for the past 24 hours.
Date / Time
(NDT)
Wind(knots) Conditions Visibility(km) Pressure(kPa) Air tempC) Relative humidity(%) Dew pointC) Wind Chill
17 April 2014
17:30 WSW 11 gust 17 N/A 15 103.9 -3 52 -11 -8
16:30 SW 12 gust 20 N/A 15 103.9 -3 65 -8 -9
15:30 WSW 14 gust 22 N/A 15 103.9 -2 58 -10 -9
14:30 SW 13 gust 18 N/A 15 103.9 -3 60 -9 -9
13:30 WSW 9 gust 18 N/A 15 103.9 -4 53 -12 -9
12:30 WSW 14 gust 19 N/A 15 103.8 -5 54 -12 -12
11:30 W 17 gust 24 N/A 15 103.7 -6 52 -14 -14
10:30 W 12 gust 18 N/A 15 103.7 -5 55 -13 -12
9:30 WNW 15 N/A 15 103.6 -6 53 -14 -14
8:30 W 15 gust 20 N/A 15 103.5 -6 55 -14 -14
7:30 WNW 12 N/A 15 103.3 -6 62 -12 -13
6:30 WNW 14 N/A 15 103.1 -5 59 -12 -13
5:30 WSW 8 gust 16 N/A 15 102.9 -4 63 -10 -9
4:30 W 8 N/A 15 102.8 -4 62 -10 -9
3:30 W 12 N/A 15 102.6 -3 63 -9 -10
2:30 WSW 9 gust 15 N/A 15 102.5 -2 73 -6 -8
1:30 WSW 14 gust 19 N/A 15 102.3 -2 78 -5 -9
0:30 WSW 10 gust 17 N/A 15 102.1 -2 76 -5 -7
16 April 2014
23:30 WSW 17 gust 24 N/A 15 102.0 -2 78 -5 -9
22:30 WSW 23 gust 29 N/A 15 101.8 -1 77 -5 -9
21:30 SW 17 gust 27 N/A 15 101.6 -1 77 -5 -8
20:30 SW 18 gust 30 N/A 15 101.4 -1 76 -5 -8
19:30 SW 17 gust 26 N/A 13 101.2 -1 85 -4 -9
18:30 SSW 25 gust 36 N/A 3 100.9 -1 86 -3 -9
17:30 SSW 20 gust 27 N/A 3 100.7 N/A N/A -2 *
 
Map of Atlantic - Newfoundland marine weather areas Southwestern Grand Banks - 44138 Banquereau - 44139 Tail of the Bank - 44140 Nickerson Bank - 44251 Northeast Burgeo Bank - 44255 Blanc-Sablon Airport Cap Whittle Chevery Natashquan Airport Heath Point Miscou Island Grand Étang Ingonish Beach North Mountain St.Paul Island J.A. Douglas McCurdy Sydney Airport Charlottetown Airport East Point North Cape Argentia Bonavista Burgeo Cape Race Corner Brook Daniel's Harbour Englee Ferolle Point La Scie Port aux Basques Rocky Harbour Sagona Island St. Anthony Airport St. John's Int'l Airport St. Lawrence Stephenville Airport Twillingate Winterland Wreckhouse Cartwright Airport Mary's Harbour Grates Cove Pool's Island Marticot Island Long Pond Îles de la Madeleine Airport
Legend: buoyBuoy land stationLand Station